Walston, Pennsylvania
Current Conditions -  °F | °C
As of 11:53 AM on Tuesday 27 Jan 2015 (Local Time) from KDUJ Reporting Station
Moderate Snow Moderate Snow  
Wind Chill:   Ceiling: 2400
Heat Index: 18°   Visibility: 0.5mi
Dew Point: 13°   Wind: 10mph
Humidity: 81%   Direction: 340°NNW
Pressure: 29.83"   Gusts: NA
Location:  40.96°N, 78.99°W
Report Text: KDUJ 271653Z AUTO 34009KT 1/2SM SN SCT014 BKN024 OVC033 M08/M11 A2983 RMK AO2 SNB1559 SLP131 P0000 T10781106
Loading
Personal Weather Stations






























Interactive Weather Map New forecast layout! Learn more

10-Day Weather Forecast

Advertisements
Track Severe Weather on mobile